createdAt,value
2022-11-06T00:01:10.906Z,6.50
2022-11-06T00:03:38.594Z,6.50
2022-11-06T00:06:28.172Z,6.50
2022-11-06T00:08:55.764Z,6.50
2022-11-06T00:11:22.742Z,6.50
2022-11-06T00:13:52.424Z,6.50
2022-11-06T00:16:20.288Z,6.50
2022-11-06T00:18:47.867Z,6.50
2022-11-06T00:21:23.995Z,6.50
2022-11-06T00:23:51.806Z,6.50
2022-11-06T00:26:21.478Z,6.50
2022-11-06T00:28:49.106Z,6.50
2022-11-06T00:31:19.233Z,6.50
2022-11-06T00:33:46.919Z,6.50
2022-11-06T00:36:16.981Z,6.50
2022-11-06T00:38:44.157Z,6.50
2022-11-06T00:41:13.635Z,6.50
2022-11-06T00:43:40.836Z,6.50
2022-11-06T00:46:14.295Z,6.50
2022-11-06T00:48:41.916Z,6.50
2022-11-06T00:51:16.554Z,6.50
2022-11-06T00:53:44.305Z,6.50
2022-11-06T00:56:18.421Z,6.50
2022-11-06T00:58:46.706Z,6.50
2022-11-06T01:01:17.238Z,6.50
2022-11-06T01:03:46.054Z,6.60
2022-11-06T01:06:15.959Z,6.50
2022-11-06T01:08:43.455Z,6.50
2022-11-06T01:11:22.283Z,6.50
2022-11-06T01:13:52.012Z,6.50
2022-11-06T01:16:20.014Z,6.60
2022-11-06T01:18:47.250Z,6.50
2022-11-06T01:21:18.050Z,6.60
2022-11-06T01:23:45.365Z,6.60
2022-11-06T01:26:13.957Z,6.50
2022-11-06T01:28:42.118Z,6.60
2022-11-06T01:31:12.602Z,6.60
2022-11-06T01:33:39.888Z,6.60
2022-11-06T01:36:12.850Z,6.60
2022-11-06T01:38:44.897Z,6.60
2022-11-06T01:41:20.974Z,6.70
2022-11-06T01:43:54.192Z,6.70
2022-11-06T01:46:23.363Z,6.70
2022-11-06T01:49:12.264Z,6.70
2022-11-06T01:51:55.236Z,6.60
2022-11-06T01:54:25.598Z,6.60
2022-11-06T01:56:56.350Z,6.60
2022-11-06T01:59:26.878Z,6.70
2022-11-06T02:01:54.332Z,6.70
2022-11-06T02:04:33.938Z,6.70
2022-11-06T02:07:01.409Z,6.70
2022-11-06T02:09:30.654Z,6.70
2022-11-06T02:12:18.078Z,6.70
2022-11-06T02:14:53.758Z,6.60
2022-11-06T02:17:31.268Z,6.60
2022-11-06T02:20:13.339Z,6.60
2022-11-06T02:23:17.662Z,6.60
2022-11-06T02:26:10.345Z,6.60
2022-11-06T02:28:52.730Z,6.60
2022-11-06T02:31:29.095Z,6.60
2022-11-06T02:34:05.704Z,6.60
2022-11-06T02:36:37.885Z,6.60
2022-11-06T02:39:11.158Z,6.60
2022-11-06T02:41:42.667Z,6.70
2022-11-06T02:44:15.565Z,6.70
2022-11-06T02:46:49.819Z,6.70
2022-11-06T02:49:31.071Z,6.70
2022-11-06T02:52:04.981Z,6.70
2022-11-06T02:54:37.714Z,6.70
2022-11-06T02:57:11.627Z,6.70
2022-11-06T02:59:52.999Z,6.80
2022-11-06T03:02:30.840Z,6.80
2022-11-06T03:05:12.941Z,6.90
2022-11-06T03:08:19.229Z,6.90
2022-11-06T03:11:01.555Z,6.90
2022-11-06T03:13:42.675Z,7.00
2022-11-06T03:16:37.601Z,7.00
2022-11-06T03:19:31.163Z,7.00
2022-11-06T03:22:25.759Z,7.00
2022-11-06T03:25:01.689Z,7.00
2022-11-06T03:28:02.982Z,7.00
2022-11-06T03:30:32.059Z,7.00
2022-11-06T03:33:15.387Z,7.00
2022-11-06T03:35:50.802Z,7.00
2022-11-06T03:38:22.342Z,7.00
2022-11-06T03:40:55.343Z,7.00
2022-11-06T03:43:28.563Z,7.20
2022-11-06T03:45:58.029Z,7.20
2022-11-06T03:48:39.832Z,7.10
2022-11-06T03:51:21.259Z,7.10
2022-11-06T03:53:58.227Z,7.10
2022-11-06T03:56:35.550Z,7.00
2022-11-06T03:59:05.996Z,6.90
2022-11-06T04:01:38.702Z,6.90
2022-11-06T04:04:30.627Z,6.80
2022-11-06T04:07:10.794Z,6.80
2022-11-06T04:09:59.215Z,6.80
2022-11-06T04:13:03.688Z,6.80
2022-11-06T04:15:33.992Z,6.80
2022-11-06T04:18:00.908Z,6.80
2022-11-06T04:20:56.255Z,6.90
2022-11-06T04:23:38.655Z,6.80
2022-11-06T04:26:38.021Z,6.70
2022-11-06T04:29:48.565Z,6.60
2022-11-06T04:32:35.721Z,6.60
2022-11-06T04:35:14.032Z,6.50
2022-11-06T04:37:53.287Z,6.50
2022-11-06T04:40:35.321Z,6.40
2022-11-06T04:43:33.487Z,6.20
2022-11-06T04:46:02.366Z,6.20
2022-11-06T04:48:30.494Z,6.00
2022-11-06T04:51:03.063Z,6.00
2022-11-06T04:53:32.309Z,5.90
2022-11-06T04:56:09.277Z,5.90
2022-11-06T04:58:36.258Z,5.90
2022-11-06T05:01:03.252Z,5.80
2022-11-06T05:03:30.247Z,5.70
2022-11-06T05:05:57.184Z,5.70
2022-11-06T05:08:24.165Z,5.60
2022-11-06T05:10:51.137Z,5.60
2022-11-06T05:13:18.117Z,5.60
2022-11-06T05:15:45.184Z,5.40
2022-11-06T05:18:12.575Z,5.40
2022-11-06T05:20:39.825Z,5.60
2022-11-06T05:23:06.805Z,5.50
2022-11-06T05:25:36.139Z,5.60
2022-11-06T05:28:08.024Z,5.60
2022-11-06T05:30:38.038Z,5.70
2022-11-06T05:33:04.992Z,5.80
2022-11-06T05:35:32.651Z,5.80
2022-11-06T05:38:01.576Z,5.80
2022-11-06T05:40:28.922Z,5.80
2022-11-06T05:42:55.891Z,5.80
2022-11-06T05:45:22.885Z,5.80
2022-11-06T05:47:49.856Z,5.80
2022-11-06T05:50:17.146Z,5.80
2022-11-06T05:52:44.100Z,5.70
2022-11-06T05:55:14.695Z,5.70
2022-11-06T05:57:42.340Z,5.60
2022-11-06T06:00:10.877Z,5.50
2022-11-06T06:02:38.592Z,5.60
2022-11-06T06:05:06.786Z,5.50
2022-11-06T06:07:33.785Z,5.40
2022-11-06T06:10:00.826Z,5.50
2022-11-06T06:12:27.845Z,5.40
2022-11-06T06:14:54.995Z,5.50
2022-11-06T06:17:22.478Z,5.40
2022-11-06T06:19:49.488Z,5.30
2022-11-06T06:22:16.834Z,5.20
2022-11-06T06:24:43.913Z,5.20
2022-11-06T06:27:11.244Z,5.30
2022-11-06T06:29:38.229Z,5.20
2022-11-06T06:32:05.663Z,5.20
2022-11-06T06:34:32.626Z,5.20
2022-11-06T06:37:00.422Z,5.20
2022-11-06T06:39:27.360Z,5.20
2022-11-06T06:41:54.290Z,5.10
2022-11-06T06:44:21.255Z,5.20
2022-11-06T06:46:48.292Z,5.20
2022-11-06T06:49:15.254Z,5.30
2022-11-06T06:51:42.245Z,5.40
2022-11-06T06:54:09.359Z,5.40
2022-11-06T06:56:36.436Z,5.40
2022-11-06T06:59:03.436Z,5.50
2022-11-06T07:01:30.821Z,5.70
2022-11-06T07:04:03.686Z,6.40
2022-11-06T07:06:31.297Z,7.20
2022-11-06T07:08:58.387Z,8.00
2022-11-06T07:11:25.491Z,8.50
2022-11-06T07:13:52.443Z,8.90
2022-11-06T07:16:21.305Z,9.10
2022-11-06T07:18:48.278Z,9.50
2022-11-06T07:21:15.226Z,9.90
2022-11-06T07:23:42.222Z,10.20
2022-11-06T07:26:09.277Z,10.30
2022-11-06T07:28:36.265Z,10.50
2022-11-06T07:31:06.591Z,10.80
2022-11-06T07:33:34.038Z,10.90
2022-11-06T07:36:09.802Z,11.10
2022-11-06T07:38:37.970Z,11.20
2022-11-06T07:41:07.964Z,10.70
2022-11-06T07:43:35.751Z,9.90
2022-11-06T07:46:05.435Z,9.90
2022-11-06T07:48:33.111Z,10.90
2022-11-06T07:51:03.060Z,11.90
2022-11-06T07:53:30.103Z,12.20
2022-11-06T07:55:57.418Z,12.30
2022-11-06T07:58:25.063Z,12.00
2022-11-06T08:00:54.310Z,12.40
2022-11-06T08:03:21.858Z,12.90
2022-11-06T08:05:49.054Z,13.40
2022-11-06T08:08:16.364Z,14.00
2022-11-06T08:10:44.159Z,14.60
2022-11-06T08:13:12.486Z,14.80
2022-11-06T08:15:40.767Z,14.80
2022-11-06T08:18:08.848Z,14.50
2022-11-06T08:20:37.724Z,14.60
2022-11-06T08:23:07.850Z,13.80
2022-11-06T08:25:35.102Z,13.00
2022-11-06T08:28:03.272Z,13.20
2022-11-06T08:30:31.274Z,13.70
2022-11-06T08:33:05.686Z,14.10
2022-11-06T08:35:34.519Z,14.30
2022-11-06T08:38:01.469Z,15.00
2022-11-06T08:40:31.207Z,15.40
2022-11-06T08:43:07.018Z,15.90
2022-11-06T08:45:40.556Z,15.90
2022-11-06T08:48:08.359Z,15.80
2022-11-06T08:50:37.036Z,16.20
2022-11-06T08:53:06.339Z,15.20
2022-11-06T08:55:35.368Z,14.80
2022-11-06T08:58:03.053Z,14.60
2022-11-06T09:00:30.217Z,14.90
2022-11-06T09:03:02.471Z,14.60
2022-11-06T09:05:31.031Z,15.70
2022-11-06T09:07:59.180Z,16.90
2022-11-06T09:10:27.234Z,16.20
2022-11-06T09:12:55.810Z,15.70
2022-11-06T09:15:22.931Z,16.10
2022-11-06T09:17:51.549Z,17.40
2022-11-06T09:20:20.373Z,18.30
2022-11-06T09:22:47.569Z,18.60
2022-11-06T09:25:15.417Z,18.60
2022-11-06T09:27:43.511Z,18.90
2022-11-06T09:30:12.939Z,19.30
2022-11-06T09:32:45.015Z,20.20
2022-11-06T09:35:11.962Z,20.40
2022-11-06T09:37:38.963Z,19.60
2022-11-06T09:40:06.823Z,18.50
2022-11-06T09:43:11.979Z,17.50
2022-11-06T09:45:41.160Z,17.30
2022-11-06T09:48:11.163Z,15.70
2022-11-06T09:50:44.455Z,14.00
2022-11-06T09:53:20.296Z,13.60
2022-11-06T09:55:49.447Z,13.00
2022-11-06T09:58:24.136Z,12.20
2022-11-06T10:00:53.387Z,11.70
2022-11-06T10:03:28.270Z,11.80
2022-11-06T10:05:55.300Z,11.50
2022-11-06T10:08:23.987Z,11.00
2022-11-06T10:10:50.859Z,10.80
2022-11-06T10:13:42.387Z,10.80
2022-11-06T10:16:27.125Z,10.30
2022-11-06T10:19:31.595Z,10.30
2022-11-06T10:22:25.492Z,10.50
2022-11-06T10:25:20.008Z,10.30
2022-11-06T10:28:02.114Z,9.90
2022-11-06T10:30:53.962Z,9.60
2022-11-06T10:33:43.622Z,9.50
2022-11-06T10:36:17.556Z,9.40
2022-11-06T10:38:47.405Z,9.30
2022-11-06T10:41:23.353Z,9.20
2022-11-06T10:43:56.866Z,9.00
2022-11-06T10:46:49.515Z,8.60
2022-11-06T10:49:28.444Z,8.20
2022-11-06T10:52:09.889Z,8.10
2022-11-06T10:54:59.633Z,8.00
2022-11-06T10:57:51.368Z,8.00
2022-11-06T11:00:18.423Z,8.00
2022-11-06T11:02:57.859Z,8.00
2022-11-06T11:05:27.097Z,8.20
2022-11-06T11:07:55.174Z,8.30
2022-11-06T11:10:26.729Z,8.50
2022-11-06T11:13:05.496Z,8.50
2022-11-06T11:15:53.125Z,8.50
2022-11-06T11:18:31.863Z,8.30
2022-11-06T11:21:15.317Z,8.30
2022-11-06T11:23:42.423Z,8.40
2022-11-06T11:26:20.670Z,8.30
2022-11-06T11:28:56.955Z,8.40
2022-11-06T11:31:32.766Z,8.40
2022-11-06T11:34:07.113Z,8.40
2022-11-06T11:36:48.983Z,8.40
2022-11-06T11:39:18.207Z,8.40
2022-11-06T11:41:45.354Z,8.50
2022-11-06T11:44:12.246Z,8.40
2022-11-06T11:46:53.694Z,8.40
2022-11-06T11:49:32.355Z,8.40
2022-11-06T11:52:02.606Z,8.40
2022-11-06T11:54:33.334Z,8.30
2022-11-06T11:57:16.661Z,8.30
2022-11-06T11:59:49.465Z,8.30
2022-11-06T12:02:36.421Z,8.20
2022-11-06T12:05:12.388Z,8.10
2022-11-06T12:07:46.508Z,8.00
2022-11-06T12:10:35.527Z,8.00
2022-11-06T12:13:13.385Z,8.00
2022-11-06T12:15:44.535Z,8.00
2022-11-06T12:18:18.317Z,8.00
2022-11-06T12:21:03.716Z,7.90
2022-11-06T12:23:56.403Z,7.80
2022-11-06T12:26:45.934Z,7.80
2022-11-06T12:29:57.565Z,7.80
2022-11-06T12:33:02.194Z,7.80
2022-11-06T12:35:31.936Z,7.70
2022-11-06T12:37:58.826Z,7.70
2022-11-06T12:40:30.897Z,7.70
2022-11-06T12:43:04.345Z,7.60
2022-11-06T12:45:56.923Z,7.60
2022-11-06T12:49:02.504Z,7.70
2022-11-06T12:52:08.810Z,7.70
2022-11-06T12:55:03.892Z,7.70
2022-11-06T12:57:46.480Z,7.70
2022-11-06T13:00:21.144Z,7.60
2022-11-06T13:03:00.101Z,7.50
2022-11-06T13:05:30.283Z,7.50
2022-11-06T13:08:31.897Z,7.60
2022-11-06T13:11:39.571Z,7.60
2022-11-06T13:14:15.212Z,7.60
2022-11-06T13:16:47.936Z,7.50
2022-11-06T13:19:40.883Z,7.50
2022-11-06T13:22:13.836Z,7.40
2022-11-06T13:24:51.312Z,7.40
2022-11-06T13:27:42.627Z,7.40
2022-11-06T13:30:17.404Z,7.40
2022-11-06T13:32:53.888Z,7.40
2022-11-06T13:35:22.391Z,7.40
2022-11-06T13:37:51.209Z,7.40
2022-11-06T13:40:32.877Z,7.40
2022-11-06T13:43:26.255Z,7.30
2022-11-06T13:45:57.590Z,7.30
2022-11-06T13:48:37.596Z,7.30
2022-11-06T13:51:20.652Z,7.30
2022-11-06T13:54:15.035Z,7.30
2022-11-06T13:57:19.348Z,7.30
2022-11-06T14:00:18.826Z,7.30
2022-11-06T14:02:51.981Z,7.20
2022-11-06T14:05:21.673Z,7.20
2022-11-06T14:07:51.352Z,7.20
2022-11-06T14:10:31.301Z,7.20
2022-11-06T14:12:58.347Z,7.20
2022-11-06T14:15:47.629Z,7.20
2022-11-06T14:18:23.923Z,7.10
2022-11-06T14:21:26.956Z,7.10
2022-11-06T14:24:15.304Z,7.10
2022-11-06T14:26:47.521Z,7.10
2022-11-06T14:29:26.485Z,7.10
2022-11-06T14:32:12.547Z,7.10
2022-11-06T14:34:41.918Z,7.10
2022-11-06T14:37:18.003Z,7.10
2022-11-06T14:39:57.124Z,7.10
2022-11-06T14:42:27.077Z,7.10
2022-11-06T14:44:59.608Z,7.00
2022-11-06T14:47:32.368Z,7.00
2022-11-06T14:50:12.238Z,7.00
2022-11-06T14:52:44.202Z,7.00
2022-11-06T14:55:31.350Z,7.00
2022-11-06T14:58:11.955Z,7.00
2022-11-06T15:01:22.269Z,7.00
2022-11-06T15:03:54.076Z,6.90
2022-11-06T15:06:33.330Z,6.90
2022-11-06T15:09:26.305Z,6.90
2022-11-06T15:12:01.346Z,6.90
2022-11-06T15:14:31.155Z,6.90
2022-11-06T15:17:11.055Z,6.90
2022-11-06T15:19:48.104Z,6.90
2022-11-06T15:22:42.754Z,6.90
2022-11-06T15:25:24.506Z,6.90
2022-11-06T15:28:27.162Z,6.80
2022-11-06T15:31:02.537Z,6.90
2022-11-06T15:33:36.898Z,6.80
2022-11-06T15:36:10.585Z,6.80
2022-11-06T15:38:40.476Z,6.80
2022-11-06T15:41:17.763Z,6.90
2022-11-06T15:43:46.796Z,6.80
2022-11-06T15:46:23.853Z,6.90
2022-11-06T15:49:26.659Z,6.90
2022-11-06T15:52:01.800Z,6.90
2022-11-06T15:54:56.884Z,6.90
2022-11-06T15:57:27.840Z,6.90
2022-11-06T16:00:11.314Z,6.90
2022-11-06T16:03:01.952Z,6.90
2022-11-06T16:05:31.538Z,6.90
2022-11-06T16:08:00.520Z,6.90
2022-11-06T16:10:27.955Z,6.90
2022-11-06T16:12:55.778Z,6.90
2022-11-06T16:15:48.855Z,6.90
2022-11-06T16:18:24.917Z,6.90
2022-11-06T16:21:09.805Z,6.90
2022-11-06T16:24:14.198Z,6.90
2022-11-06T16:26:47.895Z,6.90
2022-11-06T16:29:26.324Z,6.90
2022-11-06T16:32:05.670Z,6.90
2022-11-06T16:34:37.580Z,6.90
2022-11-06T16:37:08.142Z,6.90
2022-11-06T16:39:51.000Z,6.90
2022-11-06T16:42:28.186Z,6.90
2022-11-06T16:45:01.161Z,6.90
2022-11-06T16:47:28.869Z,6.90
2022-11-06T16:49:57.286Z,6.90
2022-11-06T16:52:38.873Z,6.90
2022-11-06T16:55:16.841Z,6.80
2022-11-06T16:57:48.921Z,6.90
2022-11-06T17:00:30.366Z,6.80
2022-11-06T17:03:09.094Z,6.90
2022-11-06T17:05:38.257Z,6.90
2022-11-06T17:08:05.217Z,6.80
2022-11-06T17:10:35.136Z,6.90
2022-11-06T17:13:21.466Z,6.90
2022-11-06T17:16:00.650Z,6.80
2022-11-06T17:18:33.215Z,6.80
2022-11-06T17:21:02.589Z,6.80
2022-11-06T17:23:31.273Z,6.90
2022-11-06T17:26:25.602Z,6.90
2022-11-06T17:28:52.647Z,6.90
2022-11-06T17:31:21.009Z,6.90
2022-11-06T17:33:48.728Z,6.90
2022-11-06T17:36:27.293Z,6.90
2022-11-06T17:38:55.880Z,6.90
2022-11-06T17:41:30.449Z,6.90
2022-11-06T17:44:05.760Z,7.00
2022-11-06T17:46:41.919Z,7.00
2022-11-06T17:49:15.802Z,7.00
2022-11-06T17:51:50.278Z,7.00
2022-11-06T17:54:22.614Z,7.00
2022-11-06T17:56:51.468Z,7.00
2022-11-06T17:59:18.599Z,7.10
2022-11-06T18:01:47.874Z,7.10
2022-11-06T18:04:15.043Z,7.00
2022-11-06T18:06:45.590Z,7.00
2022-11-06T18:09:13.784Z,7.00
2022-11-06T18:11:41.546Z,7.00
2022-11-06T18:14:08.647Z,7.00
2022-11-06T18:16:43.347Z,7.00
2022-11-06T18:19:15.425Z,7.00
2022-11-06T18:21:42.376Z,7.00
2022-11-06T18:24:09.916Z,7.00
2022-11-06T18:26:40.220Z,7.00
2022-11-06T18:29:08.408Z,7.00
2022-11-06T18:31:35.550Z,7.00
2022-11-06T18:34:03.945Z,6.90
2022-11-06T18:36:32.582Z,6.90
2022-11-06T18:38:59.542Z,6.90
2022-11-06T18:41:26.509Z,6.90
2022-11-06T18:43:59.481Z,6.90
2022-11-06T18:46:27.581Z,7.00
2022-11-06T18:48:55.856Z,7.00
2022-11-06T18:51:34.428Z,7.00
2022-11-06T18:54:05.097Z,7.00
2022-11-06T18:56:33.137Z,7.00
2022-11-06T18:59:00.602Z,7.00
2022-11-06T19:01:28.710Z,7.10
2022-11-06T19:03:55.795Z,7.10
2022-11-06T19:06:22.785Z,7.10
2022-11-06T19:08:49.860Z,7.10
2022-11-06T19:11:18.505Z,7.10
2022-11-06T19:13:48.342Z,7.10
2022-11-06T19:16:19.428Z,7.10
2022-11-06T19:21:31.044Z,7.10
2022-11-06T19:24:04.509Z,7.00
2022-11-06T19:26:34.968Z,7.00
2022-11-06T19:29:02.100Z,6.90
2022-11-06T19:31:30.245Z,6.80
2022-11-06T19:34:01.175Z,6.90
2022-11-06T19:36:29.093Z,6.80
2022-11-06T19:38:58.496Z,6.80
2022-11-06T19:41:26.823Z,6.80
2022-11-06T19:43:53.803Z,6.80
2022-11-06T19:46:25.020Z,6.80
2022-11-06T19:48:55.385Z,6.80
2022-11-06T19:51:22.514Z,6.80
2022-11-06T19:53:53.282Z,6.90
2022-11-06T19:56:21.085Z,6.90
2022-11-06T19:58:50.170Z,6.90
2022-11-06T20:01:17.747Z,6.80
2022-11-06T20:03:45.244Z,6.70
2022-11-06T20:06:13.398Z,6.50
2022-11-06T20:08:40.710Z,6.40
2022-11-06T20:11:12.847Z,6.30
2022-11-06T20:13:41.126Z,6.30
2022-11-06T20:16:13.809Z,6.30
2022-11-06T20:18:41.172Z,6.30
2022-11-06T20:21:10.791Z,6.20
2022-11-06T20:23:38.214Z,6.20
2022-11-06T20:26:06.166Z,6.10
2022-11-06T20:28:33.372Z,6.00
2022-11-06T20:31:04.207Z,5.90
2022-11-06T20:33:31.138Z,5.80
2022-11-06T20:35:58.088Z,5.80
2022-11-06T20:38:25.852Z,5.70
2022-11-06T20:40:57.056Z,5.70
2022-11-06T20:43:24.014Z,5.80
2022-11-06T20:45:51.376Z,5.80
2022-11-06T20:48:18.542Z,5.80
2022-11-06T20:51:04.178Z,5.70
2022-11-06T20:53:31.569Z,5.60
2022-11-06T20:56:00.090Z,5.60
2022-11-06T20:58:28.353Z,5.70
2022-11-06T21:01:19.846Z,6.00
2022-11-06T21:03:49.548Z,6.20
2022-11-06T21:06:17.905Z,6.30
2022-11-06T21:08:45.305Z,6.40
2022-11-06T21:11:16.830Z,6.50
2022-11-06T21:13:45.583Z,6.50
2022-11-06T21:16:15.595Z,6.50
2022-11-06T21:18:43.536Z,6.50
2022-11-06T21:21:13.489Z,6.60
2022-11-06T21:23:41.047Z,6.60
2022-11-06T21:26:10.959Z,6.60
2022-11-06T21:28:39.190Z,6.60
2022-11-06T21:31:09.872Z,6.60
2022-11-06T21:33:43.156Z,6.60
2022-11-06T21:36:16.391Z,6.70
2022-11-06T21:38:43.959Z,6.80
2022-11-06T21:41:13.383Z,6.80
2022-11-06T21:43:41.197Z,6.70
2022-11-06T21:46:11.533Z,6.80
2022-11-06T21:48:46.196Z,6.80
2022-11-06T21:51:20.631Z,6.80
2022-11-06T21:54:06.938Z,6.80
2022-11-06T21:56:34.745Z,6.80
2022-11-06T21:59:03.546Z,6.80
2022-11-06T22:01:31.622Z,6.80
2022-11-06T22:03:59.374Z,6.80
2022-11-06T22:06:27.985Z,6.90
2022-11-06T22:08:59.494Z,6.90
2022-11-06T22:11:38.161Z,6.90
2022-11-06T22:14:14.243Z,6.90
2022-11-06T22:16:43.299Z,6.80
2022-11-06T22:19:10.925Z,6.90
2022-11-06T22:21:39.781Z,6.90
2022-11-06T22:24:07.901Z,6.90
2022-11-06T22:26:35.865Z,7.00
2022-11-06T22:29:07.156Z,7.10
2022-11-06T22:31:34.434Z,7.10
2022-11-06T22:34:01.446Z,7.10
2022-11-06T22:36:28.526Z,7.10
2022-11-06T22:38:55.690Z,7.10
2022-11-06T22:41:24.496Z,7.10
2022-11-06T22:43:52.754Z,7.10
2022-11-06T22:46:23.549Z,7.00
2022-11-06T22:48:51.902Z,6.90
2022-11-06T22:51:21.487Z,6.90
2022-11-06T22:53:50.303Z,6.80
2022-11-06T22:56:17.697Z,6.80
2022-11-06T22:58:44.809Z,6.80
2022-11-06T23:01:12.489Z,6.70
2022-11-06T23:03:40.532Z,6.80
2022-11-06T23:06:09.577Z,6.90
2022-11-06T23:08:41.583Z,6.90
2022-11-06T23:11:13.105Z,7.00
2022-11-06T23:13:40.503Z,7.10
2022-11-06T23:16:13.261Z,7.10
2022-11-06T23:18:40.283Z,7.20
2022-11-06T23:21:15.400Z,7.30
2022-11-06T23:23:43.619Z,7.30
2022-11-06T23:26:14.591Z,7.30
2022-11-06T23:28:42.130Z,7.30
2022-11-06T23:31:10.649Z,7.40
2022-11-06T23:33:38.324Z,7.50
2022-11-06T23:36:17.686Z,7.60
2022-11-06T23:38:45.038Z,7.60
2022-11-06T23:41:34.971Z,7.60
2022-11-06T23:44:02.752Z,7.60
2022-11-06T23:46:32.188Z,7.50
2022-11-06T23:48:59.774Z,7.50
2022-11-06T23:51:27.901Z,7.40
2022-11-06T23:53:55.183Z,7.40
2022-11-06T23:56:22.210Z,7.30
2022-11-06T23:58:49.186Z,7.30
